Time;durP1;ratioP1;P1;durP2;ratioP2;P2;SDS_P1;SDS_P2;PMS_P1;PMS_P2;Temp;Humidity;BMP_temperature;BMP_pressure;BME280_temperature;BME280_humidity;BME280_pressure;Samples;Min_cycle;Max_cycle;Signal;HPM_P1;HPM_P2
2023/10/15 00:00:15;;;;;;;4.73;2.93;;;18.30;61.30;18.60;100992.00;;;;5069694;28;20209;-50
2023/10/15 00:02:41;;;;;;;3.43;2.43;;;18.30;61.20;18.60;100991.00;;;;5068635;28;20228;-51
2023/10/15 00:05:12;;;;;;;4.67;2.70;;;18.30;61.30;18.50;100990.00;;;;5069147;28;20188;-50
2023/10/15 00:07:41;;;;;;;3.07;2.30;;;18.20;61.10;18.50;100991.00;;;;5068374;28;20230;-50
2023/10/15 00:10:10;;;;;;;3.20;2.20;;;18.20;61.10;18.30;100992.00;;;;5067046;28;20258;-49
2023/10/15 00:12:37;;;;;;;3.30;2.40;;;18.10;61.10;18.50;100996.00;;;;5068569;28;20186;-50
2023/10/15 00:15:07;;;;;;;3.83;2.70;;;18.10;61.20;18.50;100992.00;;;;5067174;28;20201;-50
2023/10/15 00:17:33;;;;;;;4.63;2.57;;;18.20;61.10;18.40;100997.00;;;;5068452;28;20672;-50
2023/10/15 00:19:59;;;;;;;3.53;2.30;;;18.10;60.80;18.40;100985.00;;;;5068301;28;20593;-49
2023/10/15 00:22:25;;;;;;;3.77;2.43;;;18.10;60.70;18.40;100980.00;;;;5068468;28;20185;-49
2023/10/15 00:24:51;;;;;;;3.30;2.10;;;18.10;60.80;18.40;100987.00;;;;5068336;28;20264;-49
2023/10/15 00:27:17;;;;;;;4.73;2.30;;;18.10;60.70;18.30;100983.00;;;;5068018;28;20216;-50
2023/10/15 00:29:43;;;;;;;3.60;2.50;;;18.10;60.20;18.30;100984.00;;;;5068246;28;20295;-49
2023/10/15 00:32:09;;;;;;;4.93;2.60;;;18.10;61.10;18.30;100982.00;;;;5068386;28;20257;-50
2023/10/15 00:34:35;;;;;;;4.70;2.40;;;18.10;60.30;18.30;100972.00;;;;5068391;28;20189;-50
2023/10/15 00:37:01;;;;;;;4.63;2.33;;;18.00;60.30;18.30;100983.00;;;;5068668;28;20182;-49
2023/10/15 00:39:27;;;;;;;3.50;2.40;;;18.00;60.60;18.20;100983.00;;;;5068159;28;20193;-50
2023/10/15 00:41:53;;;;;;;6.10;2.60;;;18.00;60.50;18.20;100979.00;;;;5068342;28;20211;-49
2023/10/15 00:44:20;;;;;;;3.27;2.10;;;18.00;60.50;18.20;100985.00;;;;5068323;28;20667;-49
2023/10/15 00:46:54;;;;;;;2.90;2.20;;;18.00;60.40;18.20;100982.00;;;;5068031;28;20256;-50
2023/10/15 00:49:25;;;;;;;3.47;2.20;;;18.00;60.50;18.20;100983.00;;;;5066924;28;20199;-49
2023/10/15 00:51:50;;;;;;;3.43;2.40;;;18.00;60.20;18.10;100980.00;;;;5066888;28;20185;-49
2023/10/15 00:54:16;;;;;;;5.80;2.67;;;17.90;60.30;18.10;100989.00;;;;5066721;28;20556;-50
2023/10/15 00:56:44;;;;;;;4.20;2.50;;;17.90;59.90;18.10;100983.00;;;;5068438;28;20206;-50
2023/10/15 00:59:21;;;;;;;2.87;2.13;;;17.90;60.00;18.10;100985.00;;;;5066615;28;20181;-49
2023/10/15 01:01:54;;;;;;;4.37;2.27;;;17.90;60.20;18.10;100977.00;;;;5067003;28;20270;-49
2023/10/15 01:04:25;;;;;;;3.90;2.40;;;17.80;59.90;18.10;100985.00;;;;5068109;28;20193;-50
2023/10/15 01:06:51;;;;;;;5.17;2.40;;;17.80;59.40;18.00;100925.00;;;;5067881;28;20272;-50
2023/10/15 01:11:44;;;;;;;5.27;2.53;;;17.80;60.10;18.00;100973.00;;;;5067977;28;20206;-49
2023/10/15 01:14:11;;;;;;;3.83;2.40;;;17.80;59.80;18.00;100970.00;;;;5067874;28;20226;-50
2023/10/15 01:16:38;;;;;;;2.93;2.30;;;17.70;59.80;18.00;100970.00;;;;5067694;28;20185;-49
2023/10/15 01:21:50;;;;;;;2.87;2.20;;;17.70;59.80;17.90;100977.00;;;;5067683;28;20197;-49
2023/10/15 01:24:18;;;;;;;3.27;2.27;;;17.70;59.90;17.90;100970.00;;;;5066602;28;20189;-48
2023/10/15 01:26:51;;;;;;;4.63;2.33;;;17.70;60.10;17.90;100972.00;;;;5067563;28;20213;-50
2023/10/15 01:29:21;;;;;;;2.87;2.20;;;17.60;59.80;17.90;100972.00;;;;5073452;28;20174;-49
2023/10/15 01:31:51;;;;;;;3.33;2.40;;;17.60;59.70;17.80;100977.00;;;;5084698;28;20281;-50
2023/10/15 01:34:21;;;;;;;4.10;2.63;;;17.60;59.90;17.80;100977.00;;;;5068287;28;20184;-49
2023/10/15 01:36:51;;;;;;;5.47;2.27;;;17.60;59.70;17.80;100976.00;;;;5067077;28;20212;-49
2023/10/15 01:39:22;;;;;;;4.53;2.60;;;17.60;59.60;17.80;100983.00;;;;5068714;28;20191;-49
2023/10/15 01:41:57;;;;;;;3.60;2.50;;;17.60;59.70;17.80;100977.00;;;;5068740;28;20289;-49
2023/10/15 01:44:24;;;;;;;3.60;2.60;;;17.60;59.70;17.80;100964.00;;;;5082981;28;20201;-52
2023/10/15 01:47:07;;;;;;;3.03;2.30;;;17.60;59.70;17.70;100973.00;;;;5072344;28;20675;-50
2023/10/15 01:49:33;;;;;;;2.90;2.60;;;17.60;59.70;17.70;100967.00;;;;5067181;28;20818;-49
2023/10/15 01:52:09;;;;;;;3.90;2.60;;;17.60;59.70;17.70;100970.00;;;;5067912;28;20210;-49
2023/10/15 01:54:45;;;;;;;4.13;2.60;;;17.60;59.70;17.70;100963.00;;;;5067283;28;20188;-49
2023/10/15 01:57:14;;;;;;;4.00;2.70;;;17.50;59.20;17.70;100960.00;;;;5067633;28;20192;-50
2023/10/15 01:59:46;;;;;;;3.63;2.50;;;17.50;59.60;17.70;100963.00;;;;5067017;28;20189;-49
2023/10/15 02:02:15;;;;;;;3.67;2.53;;;17.50;59.10;17.70;100953.00;;;;5067476;28;20182;-50
2023/10/15 02:04:44;;;;;;;3.57;2.50;;;17.40;59.60;17.60;100957.00;;;;5067212;28;20193;-50
2023/10/15 02:07:19;;;;;;;4.80;2.90;;;17.40;59.50;17.60;100954.00;;;;5067053;28;20291;-49
2023/10/15 02:09:45;;;;;;;3.47;2.50;;;17.40;58.60;17.60;100956.00;;;;5067737;28;20239;-50
2023/10/15 02:12:18;;;;;;;4.40;2.80;;;17.40;59.40;17.60;100958.00;;;;5061857;28;20192;-53
2023/10/15 02:14:44;;;;;;;3.73;2.77;;;17.30;57.60;17.60;100960.00;;;;5068293;28;21781;-53
2023/10/15 02:17:18;;;;;;;3.37;2.80;;;17.30;58.80;17.60;100964.00;;;;5069305;28;20644;-54
2023/10/15 02:19:44;;;;;;;3.90;2.90;;;17.30;58.70;17.50;100956.00;;;;5064417;28;20209;-52
2023/10/15 02:22:14;;;;;;;3.93;2.80;;;17.40;58.80;17.50;100957.00;;;;5064636;28;20260;-54
2023/10/15 02:24:47;;;;;;;3.37;2.60;;;17.30;59.10;17.50;100950.00;;;;5069686;28;20185;-54
2023/10/15 02:27:25;;;;;;;5.13;2.83;;;17.30;59.30;17.50;100955.00;;;;5070561;28;20272;-54
2023/10/15 02:29:52;;;;;;;3.20;2.50;;;17.30;58.90;17.50;100951.00;;;;5067682;28;20235;-54
2023/10/15 02:32:21;;;;;;;4.00;2.80;;;17.30;59.20;17.50;100950.00;;;;5063432;28;20263;-53
2023/10/15 02:34:50;;;;;;;4.07;2.63;;;17.20;58.50;17.40;100955.00;;;;5068080;28;20177;-54
2023/10/15 02:37:23;;;;;;;4.47;2.60;;;17.20;58.80;17.40;100955.00;;;;5070690;28;20757;-54
2023/10/15 02:39:52;;;;;;;4.20;2.80;;;17.00;58.90;17.40;100948.00;;;;5070063;28;20213;-53
2023/10/15 02:42:30;;;;;;;3.93;2.80;;;17.00;58.10;17.40;100940.00;;;;5070076;28;20324;-53
2023/10/15 02:44:58;;;;;;;5.23;2.97;;;17.00;57.80;17.40;100940.00;;;;5070342;28;20693;-53
2023/10/15 02:47:48;;;;;;;4.17;3.00;;;17.00;58.50;17.30;100942.00;;;;5071617;28;20310;-62
2023/10/15 02:50:23;;;;;;;4.10;2.70;;;17.10;59.00;17.30;100986.00;;;;5071203;28;20878;-54
2023/10/15 02:52:49;;;;;;;2.90;2.40;;;17.00;58.50;17.30;100993.00;;;;5070896;28;20723;-53
2023/10/15 02:55:15;;;;;;;3.60;2.53;;;16.90;58.40;17.20;100979.00;;;;5070238;28;20183;-53
2023/10/15 02:57:42;;;;;;;3.63;2.60;;;17.00;57.80;17.20;100981.00;;;;5070069;28;20191;-54
2023/10/15 03:00:28;;;;;;;3.30;2.40;;;17.00;58.00;17.10;100981.00;;;;5069786;28;20205;-53
2023/10/15 03:02:57;;;;;;;3.60;2.47;;;17.00;58.30;17.10;100977.00;;;;5070104;28;20191;-53
2023/10/15 03:05:30;;;;;;;2.73;2.30;;;17.00;58.50;17.10;100983.00;;;;5071028;28;20212;-53
2023/10/15 03:07:56;;;;;;;3.43;2.40;;;16.90;58.30;17.10;100992.00;;;;5071332;28;20216;-53
2023/10/15 03:10:22;;;;;;;2.83;2.20;;;16.90;58.40;17.10;100982.00;;;;5070805;28;20203;-54
2023/10/15 03:12:48;;;;;;;2.90;2.20;;;16.90;58.40;17.10;100978.00;;;;5070993;28;20180;-53
2023/10/15 03:15:14;;;;;;;3.50;2.20;;;16.90;58.80;17.10;100982.00;;;;5070766;28;20187;-53
2023/10/15 03:17:46;;;;;;;3.53;2.30;;;16.90;58.80;17.10;100991.00;;;;5062390;28;20252;-53
2023/10/15 03:22:45;;;;;;;3.97;2.60;;;16.90;58.90;17.10;100988.00;;;;5047193;28;20724;-55
2023/10/15 03:25:13;;;;;;;3.57;2.20;;;16.90;59.10;17.00;100977.00;;;;5084338;28;20183;-52
2023/10/15 03:27:46;;;;;;;5.07;2.50;;;16.90;59.10;17.00;100975.00;;;;5064863;28;20192;-54
2023/10/15 03:30:13;;;;;;;7.30;2.60;;;16.90;59.10;17.10;100980.00;;;;5071274;28;20236;-53
2023/10/15 03:32:46;;;;;;;4.10;2.53;;;16.80;58.30;17.10;100987.00;;;;5057883;28;20180;-54
2023/10/15 03:38:13;;;;;;;5.60;2.70;;;16.80;58.40;17.00;100996.00;;;;5065185;28;20249;-53
2023/10/15 03:40:46;;;;;;;4.13;2.60;;;16.90;58.70;17.00;100995.00;;;;5068487;28;20282;-54
2023/10/15 03:43:15;;;;;;;4.90;2.67;;;16.80;58.90;17.00;100996.00;;;;5062083;28;20191;-53
2023/10/15 03:45:51;;;;;;;5.77;3.40;;;16.80;59.00;17.00;100987.00;;;;5062180;28;20196;-54
2023/10/15 03:48:22;;;;;;;4.87;3.23;;;16.80;58.80;17.00;100988.00;;;;5069419;28;20270;-53
2023/10/15 03:50:53;;;;;;;3.73;2.63;;;16.70;59.00;16.90;100994.00;;;;5069441;28;20198;-53
2023/10/15 03:53:36;;;;;;;4.90;2.43;;;16.80;59.10;16.90;100987.00;;;;5067412;28;20254;-53
2023/10/15 03:56:03;;;;;;;3.93;2.50;;;16.70;59.00;16.90;100990.00;;;;5070954;28;20267;-60
2023/10/15 03:58:31;;;;;;;3.43;2.40;;;16.80;59.10;16.90;101004.00;;;;5071377;28;20184;-51
2023/10/15 04:03:42;;;;;;;3.77;2.40;;;16.70;59.10;16.90;101001.00;;;;5059117;28;20179;-53
2023/10/15 04:06:09;;;;;;;4.37;2.40;;;16.60;59.00;16.90;100992.00;;;;5069182;28;20266;-51
2023/10/15 04:08:37;;;;;;;3.13;2.20;;;16.60;59.10;16.90;100994.00;;;;5069003;28;20609;-54
2023/10/15 04:11:02;;;;;;;4.20;2.57;;;16.70;59.60;16.90;100997.00;;;;5060834;28;20209;-54
2023/10/15 04:13:28;;;;;;;3.23;2.30;;;16.60;59.70;16.90;101005.00;;;;5067367;28;20193;-53
2023/10/15 04:15:55;;;;;;;5.53;2.73;;;16.70;60.00;16.90;100997.00;;;;5067689;28;20206;-52
2023/10/15 04:18:23;;;;;;;3.57;2.43;;;16.70;59.90;16.90;100993.00;;;;5068848;28;20208;-52
2023/10/15 04:20:53;;;;;;;3.07;2.33;;;16.60;60.20;16.90;100993.00;;;;5068651;28;20199;-53
2023/10/15 04:23:31;;;;;;;3.90;2.40;;;16.60;59.90;16.90;100990.00;;;;5067258;28;20707;-52
2023/10/15 04:26:00;;;;;;;3.50;2.60;;;16.60;59.80;16.90;100989.00;;;;5069304;28;20180;-53
2023/10/15 04:28:30;;;;;;;4.33;2.80;;;16.60;59.90;16.80;100991.00;;;;5069143;28;20303;-51
2023/10/15 04:30:56;;;;;;;3.57;2.30;;;16.60;60.20;16.90;100985.00;;;;5065415;28;20212;-50
2023/10/15 04:33:25;;;;;;;3.90;2.40;;;16.60;60.40;16.90;100989.00;;;;5065062;28;20181;-52
2023/10/15 04:35:51;;;;;;;4.40;2.23;;;16.60;60.90;17.00;100972.00;;;;5069435;28;20627;-53
2023/10/15 04:38:27;;;;;;;6.93;2.53;;;16.60;62.50;17.00;100982.00;;;;5069341;28;20211;-52
2023/10/15 04:43:24;;;;;;;4.10;2.40;;;16.20;61.40;17.00;100980.00;;;;5067662;28;20562;-52
2023/10/15 04:45:50;;;;;;;3.97;2.70;;;16.00;62.40;16.80;100955.00;;;;5065526;28;20640;-52
2023/10/15 04:48:16;;;;;;;3.97;2.47;;;15.40;62.90;16.70;100967.00;;;;5066093;28;20219;-52
2023/10/15 04:50:45;;;;;;;4.93;2.77;;;15.20;65.30;16.60;100988.00;;;;5067616;28;20260;-52
2023/10/15 04:55:41;;;;;;;5.17;2.60;;;15.60;63.90;16.60;101015.00;;;;5068950;28;20894;-52
2023/10/15 04:58:06;;;;;;;6.23;2.80;;;15.80;64.90;16.70;101005.00;;;;5068390;28;20216;-53
2023/10/15 05:00:35;;;;;;;4.17;2.30;;;16.00;64.90;16.80;101008.00;;;;5065335;28;20577;-52
2023/10/15 05:03:01;;;;;;;7.73;2.60;;;16.20;64.70;16.80;101013.00;;;;5066590;28;20197;-52
2023/10/15 05:05:27;;;;;;;5.17;2.30;;;16.30;64.50;16.90;101005.00;;;;5068659;28;20193;-52
2023/10/15 05:07:57;;;;;;;3.70;2.63;;;16.40;64.40;16.90;101010.00;;;;5068529;28;20197;-53
2023/10/15 05:10:23;;;;;;;3.97;2.50;;;16.40;64.20;17.00;101013.00;;;;5067451;28;20247;-52
2023/10/15 05:12:51;;;;;;;5.57;2.60;;;16.50;64.30;17.00;101015.00;;;;5068711;28;20188;-50
2023/10/15 05:15:18;;;;;;;3.90;2.50;;;16.50;64.20;17.10;101002.00;;;;5065611;28;20205;-51
2023/10/15 05:17:47;;;;;;;3.93;2.50;;;16.50;64.30;17.10;100997.00;;;;5063471;28;20264;-53
2023/10/15 05:20:13;;;;;;;3.93;2.50;;;16.50;64.40;17.10;100999.00;;;;5059583;28;20586;-53
2023/10/15 05:22:40;;;;;;;4.67;3.00;;;16.60;64.40;17.10;101000.00;;;;5060889;28;20266;-51
2023/10/15 05:25:15;;;;;;;5.47;3.00;;;16.60;64.50;17.20;100985.00;;;;5068992;28;20184;-52
2023/10/15 05:27:42;;;;;;;5.07;2.80;;;16.50;64.30;17.20;101000.00;;;;5069952;28;20208;-52
2023/10/15 05:30:11;;;;;;;3.00;2.40;;;16.50;64.30;17.20;100999.00;;;;5069862;28;20203;-55
2023/10/15 05:32:37;;;;;;;4.90;2.77;;;16.50;64.30;17.20;101014.00;;;;5068824;28;20205;-52
2023/10/15 05:35:08;;;;;;;3.17;2.30;;;16.50;64.00;17.20;101015.00;;;;5053008;28;20284;-54
2023/10/15 05:37:36;;;;;;;4.57;2.60;;;16.50;64.90;17.20;101007.00;;;;5062059;28;20189;-53
2023/10/15 05:40:06;;;;;;;3.20;2.40;;;16.50;65.20;17.20;101004.00;;;;5061721;28;20204;-54
2023/10/15 05:42:32;;;;;;;3.97;2.40;;;16.50;65.50;17.20;101020.00;;;;5066146;28;20609;-54
2023/10/15 05:44:58;;;;;;;3.63;2.20;;;16.60;65.60;17.20;101007.00;;;;5067341;28;20607;-53
2023/10/15 05:47:24;;;;;;;4.73;2.40;;;16.70;65.80;17.30;101012.00;;;;5071970;28;20217;-55
2023/10/15 05:49:50;;;;;;;3.47;2.20;;;16.70;65.80;17.30;101017.00;;;;5071361;28;20283;-55
2023/10/15 05:52:15;;;;;;;2.93;2.27;;;16.70;66.60;17.30;101015.00;;;;5071941;28;20256;-54
2023/10/15 05:54:41;;;;;;;4.60;2.40;;;16.70;65.80;17.30;101022.00;;;;5072185;28;20268;-54
2023/10/15 05:57:07;;;;;;;4.07;2.23;;;16.80;66.00;17.30;101005.00;;;;5063888;28;20212;-54
2023/10/15 05:59:36;;;;;;;5.17;2.43;;;16.80;66.00;17.40;101008.00;;;;5052206;28;20242;-54
2023/10/15 06:02:04;;;;;;;3.37;2.20;;;16.80;66.00;17.40;101006.00;;;;5068636;28;20270;-54
2023/10/15 06:04:31;;;;;;;3.53;2.00;;;16.80;66.00;17.40;101017.00;;;;5066053;28;20202;-54
2023/10/15 06:06:57;;;;;;;4.77;2.33;;;16.80;66.00;17.40;101010.00;;;;5071315;28;20205;-54
2023/10/15 06:09:23;;;;;;;7.33;2.00;;;16.80;66.00;17.40;101024.00;;;;5070928;28;20235;-55
2023/10/15 06:11:50;;;;;;;2.87;2.10;;;16.80;66.00;17.40;101021.00;;;;5058864;28;20286;-55
2023/10/15 06:14:15;;;;;;;7.23;2.60;;;16.80;66.10;17.40;101023.00;;;;5054770;28;20181;-54
2023/10/15 06:16:41;;;;;;;2.50;2.20;;;16.80;66.20;17.40;101026.00;;;;5067474;28;20203;-54
2023/10/15 06:19:09;;;;;;;3.70;2.00;;;16.90;66.20;17.40;101022.00;;;;5060069;28;20193;-57
2023/10/15 06:21:35;;;;;;;3.73;2.10;;;16.80;66.20;17.40;101024.00;;;;5068742;28;20206;-54
2023/10/15 06:24:01;;;;;;;3.57;2.20;;;16.90;66.40;17.40;101035.00;;;;5071477;28;20249;-54
2023/10/15 06:26:28;;;;;;;2.77;2.13;;;16.90;66.40;17.50;101044.00;;;;5071303;28;20238;-57
2023/10/15 06:28:53;;;;;;;2.73;2.00;;;16.90;66.50;17.40;101044.00;;;;5070908;28;20197;-55
2023/10/15 06:31:19;;;;;;;2.90;2.23;;;16.80;66.50;17.40;101048.00;;;;5075239;28;20197;-55
2023/10/15 06:33:45;;;;;;;2.30;2.10;;;16.80;66.50;17.40;101044.00;;;;5075698;28;20186;-54
2023/10/15 06:36:11;;;;;;;3.27;2.00;;;16.90;66.60;17.40;101039.00;;;;5071236;28;20202;-54
2023/10/15 06:38:36;;;;;;;3.67;2.20;;;16.90;66.80;17.40;101042.00;;;;5070925;28;20212;-54
2023/10/15 06:41:02;;;;;;;4.77;2.00;;;16.90;66.70;17.50;101029.00;;;;5070699;28;20201;-56
2023/10/15 06:43:28;;;;;;;3.27;2.13;;;16.90;66.60;17.50;101027.00;;;;5065890;28;20671;-54
2023/10/15 06:45:54;;;;;;;2.73;2.10;;;16.90;66.60;17.50;101034.00;;;;5070963;28;20698;-55
2023/10/15 06:48:22;;;;;;;2.33;1.87;;;16.90;66.80;17.50;101039.00;;;;5062867;28;20241;-54
2023/10/15 06:50:48;;;;;;;3.83;2.00;;;16.90;66.80;17.50;101033.00;;;;5050446;28;20201;-55
2023/10/15 06:53:14;;;;;;;1.93;1.80;;;16.90;66.80;17.50;101048.00;;;;5049094;28;20641;-55
2023/10/15 06:55:45;;;;;;;2.27;1.97;;;16.90;66.80;17.50;101056.00;;;;5050241;28;20177;-55
2023/10/15 06:58:11;;;;;;;1.97;1.77;;;16.90;66.90;17.50;101061.00;;;;5050518;28;20225;-54
2023/10/15 07:00:38;;;;;;;2.50;1.70;;;16.90;66.90;17.50;101056.00;;;;5051509;28;20261;-55
2023/10/15 07:03:04;;;;;;;4.37;1.90;;;16.90;67.00;17.50;101059.00;;;;5065572;28;20190;-54
2023/10/15 07:05:29;;;;;;;2.60;1.80;;;16.90;67.20;17.50;101059.00;;;;5046069;28;20191;-55
2023/10/15 07:07:56;;;;;;;4.23;2.10;;;16.90;67.40;17.50;101055.00;;;;5052045;28;20211;-55
2023/10/15 07:10:22;;;;;;;4.60;1.90;;;16.90;67.40;17.50;101063.00;;;;5059718;28;20196;-55
2023/10/15 07:12:50;;;;;;;2.93;2.00;;;17.00;67.60;17.50;101070.00;;;;5069373;28;20697;-55
2023/10/15 07:15:16;;;;;;;3.40;2.03;;;17.00;67.60;17.60;101070.00;;;;5070994;28;20178;-54
2023/10/15 07:17:42;;;;;;;2.70;1.80;;;17.10;67.80;17.60;101075.00;;;;5060722;28;20239;-55
2023/10/15 07:20:14;;;;;;;7.03;1.97;;;17.20;68.00;17.70;101076.00;;;;5071207;28;20207;-54
2023/10/15 07:22:44;;;;;;;6.33;1.93;;;17.30;67.90;17.80;101076.00;;;;5065607;28;20200;-55
2023/10/15 07:25:10;;;;;;;3.27;2.17;;;17.40;67.70;17.80;101077.00;;;;5080310;28;20216;-55
2023/10/15 07:27:41;;;;;;;3.40;1.93;;;17.50;67.50;17.90;101073.00;;;;5077461;28;20729;-55
2023/10/15 07:30:12;;;;;;;6.90;2.27;;;17.60;67.30;18.00;101078.00;;;;5060041;28;20322;-54
2023/10/15 07:32:39;;;;;;;3.77;2.07;;;17.80;67.20;18.10;101078.00;;;;5068386;28;20186;-53
2023/10/15 07:35:07;;;;;;;4.90;1.93;;;17.90;67.20;18.10;101074.00;;;;5058881;28;20190;-55
2023/10/15 07:37:34;;;;;;;5.17;2.10;;;18.00;67.30;18.20;101084.00;;;;5061280;28;20184;-54
2023/10/15 07:40:05;;;;;;;4.17;2.00;;;18.10;67.60;18.30;101094.00;;;;5068310;28;20204;-55
2023/10/15 07:42:33;;;;;;;4.33;2.00;;;18.20;67.30;18.40;101101.00;;;;5069631;28;20687;-54
2023/10/15 07:44:59;;;;;;;2.27;1.77;;;18.20;67.30;18.40;101113.00;;;;5069682;28;20197;-54
2023/10/15 07:47:26;;;;;;;4.77;1.97;;;18.20;67.40;18.50;101119.00;;;;5069494;28;20219;-54
2023/10/15 07:49:52;;;;;;;3.70;1.90;;;18.30;67.60;18.50;101116.00;;;;5068623;28;20291;-54
2023/10/15 07:52:17;;;;;;;4.63;1.97;;;18.30;67.60;18.60;101130.00;;;;5069804;28;20260;-54
2023/10/15 07:54:43;;;;;;;5.37;2.07;;;18.30;67.90;18.60;101128.00;;;;5069542;28;20652;-54
2023/10/15 07:57:14;;;;;;;4.90;2.00;;;18.30;68.20;18.60;101126.00;;;;5069409;28;20216;-55
2023/10/15 07:59:39;;;;;;;2.17;1.80;;;18.30;68.60;18.60;101135.00;;;;5066272;28;20200;-54
2023/10/15 08:02:07;;;;;;;2.53;1.77;;;18.30;69.10;18.60;101134.00;;;;5069204;28;20184;-55
2023/10/15 08:04:34;;;;;;;2.67;1.80;;;18.20;69.40;18.60;101146.00;;;;5069330;28;20190;-53
2023/10/15 08:07:00;;;;;;;3.30;2.07;;;18.30;69.70;18.70;101144.00;;;;5061093;28;20222;-55
2023/10/15 08:09:26;;;;;;;3.47;1.80;;;18.30;70.10;18.70;101152.00;;;;5065642;28;20219;-55
2023/10/15 08:11:52;;;;;;;2.03;1.70;;;18.30;70.20;18.70;101139.00;;;;5070119;28;20185;-55
2023/10/15 08:14:18;;;;;;;2.53;2.03;;;18.20;70.30;18.70;101142.00;;;;5072754;28;20185;-55
2023/10/15 08:16:43;;;;;;;2.10;1.77;;;18.20;70.70;18.70;101153.00;;;;5069175;28;20197;-54
2023/10/15 08:19:09;;;;;;;2.47;2.00;;;18.20;71.80;18.70;101152.00;;;;5067732;28;20640;-54
2023/10/15 08:21:35;;;;;;;2.07;1.73;;;18.20;71.30;18.70;101152.00;;;;5068435;28;20213;-54
2023/10/15 08:24:01;;;;;;;4.87;2.00;;;18.30;71.70;18.70;101149.00;;;;5067805;28;20189;-55
2023/10/15 08:26:27;;;;;;;3.47;1.80;;;18.30;71.50;18.70;101160.00;;;;5058546;28;20204;-54
2023/10/15 08:28:53;;;;;;;4.53;1.90;;;18.20;71.60;18.70;101162.00;;;;5067968;28;20200;-55
2023/10/15 08:31:18;;;;;;;3.73;1.60;;;18.30;71.70;18.70;101166.00;;;;5060906;28;20204;-57
2023/10/15 08:33:44;;;;;;;2.03;1.80;;;18.20;71.60;18.70;101175.00;;;;5062410;28;20192;-54
2023/10/15 08:36:10;;;;;;;3.73;2.00;;;18.20;72.00;18.70;101162.00;;;;5069447;28;20174;-55
2023/10/15 08:38:36;;;;;;;2.73;1.97;;;18.20;72.50;18.70;101166.00;;;;5065472;28;20375;-55
2023/10/15 08:41:04;;;;;;;6.20;1.93;;;18.20;72.30;18.70;101162.00;;;;5068119;28;20205;-54
2023/10/15 08:43:32;;;;;;;6.13;2.23;;;18.20;71.90;18.70;101170.00;;;;5067816;28;20560;-54
2023/10/15 08:45:58;;;;;;;4.37;1.97;;;18.10;71.50;18.70;101165.00;;;;5067253;28;20708;-54
2023/10/15 08:48:25;;;;;;;5.40;1.97;;;18.10;71.60;18.70;101154.00;;;;5068650;28;20265;-54
2023/10/15 08:50:51;;;;;;;7.17;2.23;;;18.10;71.60;18.70;101162.00;;;;5067146;28;20230;-54
2023/10/15 08:53:16;;;;;;;5.13;2.00;;;18.10;71.60;18.70;101171.00;;;;5067532;28;20185;-57
2023/10/15 08:55:42;;;;;;;4.23;1.90;;;18.10;71.60;18.70;101165.00;;;;5068333;28;20173;-54
2023/10/15 08:58:09;;;;;;;2.77;2.03;;;18.10;71.30;18.70;101181.00;;;;5066639;28;20181;-56
2023/10/15 09:00:39;;;;;;;5.33;1.87;;;18.10;71.20;18.70;101161.00;;;;5064731;28;20198;-55
2023/10/15 09:03:04;;;;;;;2.67;1.60;;;18.10;71.20;18.70;101177.00;;;;5068516;28;20192;-56
2023/10/15 09:05:33;;;;;;;5.97;2.00;;;18.10;71.10;18.70;101181.00;;;;5073738;28;20215;-55
2023/10/15 09:08:06;;;;;;;6.07;1.90;;;18.10;71.10;18.60;101179.00;;;;5078361;28;20224;-55
2023/10/15 09:10:33;;;;;;;4.33;1.70;;;18.00;71.00;18.60;101185.00;;;;5067085;28;20244;-57
2023/10/15 09:12:59;;;;;;;3.27;1.87;;;18.00;71.00;18.60;101194.00;;;;5067827;28;20180;-61
2023/10/15 09:15:29;;;;;;;2.70;1.70;;;18.00;70.90;18.60;101189.00;;;;5069097;28;20181;-55
2023/10/15 09:17:58;;;;;;;2.13;1.60;;;18.00;70.90;18.60;101186.00;;;;5067964;28;20666;-55
2023/10/15 09:20:27;;;;;;;2.63;1.80;;;18.00;71.00;18.60;101198.00;;;;5081213;28;20208;-55
2023/10/15 09:22:59;;;;;;;1.97;1.67;;;18.00;71.00;18.60;101199.00;;;;5069309;28;20184;-58
2023/10/15 09:25:26;;;;;;;4.57;1.90;;;17.90;71.30;18.60;101203.00;;;;5062020;28;20185;-55
2023/10/15 09:27:55;;;;;;;3.57;1.90;;;17.90;71.60;18.60;101227.00;;;;5065798;28;20717;-54
2023/10/15 09:30:24;;;;;;;4.43;1.90;;;18.00;71.80;18.60;101223.00;;;;5070597;28;20688;-55
2023/10/15 09:32:50;;;;;;;2.20;1.70;;;18.00;71.50;18.50;101219.00;;;;5072163;28;20178;-55
2023/10/15 09:35:16;;;;;;;4.90;1.80;;;17.90;71.40;18.50;101224.00;;;;5070807;28;20178;-55
2023/10/15 09:37:44;;;;;;;3.37;1.90;;;17.90;72.20;18.50;101215.00;;;;5072299;28;20696;-57
2023/10/15 09:40:10;;;;;;;3.97;1.80;;;17.90;71.50;18.50;101239.00;;;;5061247;28;20956;-55
2023/10/15 09:42:38;;;;;;;6.20;1.93;;;17.90;71.80;18.50;101232.00;;;;5070626;28;20216;-55
2023/10/15 09:45:06;;;;;;;3.07;1.60;;;17.90;71.70;18.50;101229.00;;;;5071989;28;20193;-57
2023/10/15 09:47:39;;;;;;;5.93;2.47;;;17.90;71.60;18.50;101248.00;;;;5054261;28;20208;-56
2023/10/15 09:50:09;;;;;;;3.80;2.40;;;17.90;72.00;18.50;101240.00;;;;5058317;28;20232;-57
2023/10/15 09:52:35;;;;;;;6.30;2.77;;;17.90;72.50;18.50;101233.00;;;;5052835;28;20189;-57
2023/10/15 09:55:02;;;;;;;5.47;2.90;;;17.90;73.10;18.50;101234.00;;;;5070616;28;20741;-56
2023/10/15 09:57:28;;;;;;;5.70;3.30;;;17.90;73.50;18.50;101237.00;;;;5070646;28;20306;-55
2023/10/15 09:59:54;;;;;;;5.17;3.30;;;17.90;73.90;18.50;101248.00;;;;5066591;28;20241;-56
2023/10/15 10:02:32;;;;;;;5.57;3.23;;;17.90;73.70;18.50;101231.00;;;;5070409;28;20200;-55
2023/10/15 10:05:41;;;;;;;5.00;3.00;;;17.90;74.50;18.50;101233.00;;;;5070722;28;20197;-56
2023/10/15 10:08:16;;;;;;;5.17;3.00;;;17.90;74.70;18.50;101227.00;;;;5065154;28;20211;-56
2023/10/15 10:11:22;;;;;;;3.10;2.80;;;17.90;75.10;18.50;101254.00;;;;5056336;28;20653;-56
2023/10/15 10:14:23;;;;;;;5.07;2.83;;;17.90;74.80;18.50;101261.00;;;;5066884;28;20211;-56
2023/10/15 10:16:50;;;;;;;4.40;2.60;;;17.80;74.40;18.40;101234.00;;;;5066357;28;20691;-56
2023/10/15 10:19:16;;;;;;;5.30;2.80;;;17.80;74.30;18.40;101269.00;;;;5068421;28;20185;-56
2023/10/15 10:21:46;;;;;;;3.23;2.80;;;17.90;74.10;18.40;101268.00;;;;5069157;28;20266;-57
2023/10/15 10:24:12;;;;;;;3.77;2.70;;;17.80;73.70;18.40;101273.00;;;;5058618;28;20208;-56
2023/10/15 10:26:40;;;;;;;3.10;2.47;;;17.80;73.30;18.40;101273.00;;;;5065144;28;20258;-56
2023/10/15 10:29:07;;;;;;;2.63;2.37;;;17.80;73.10;18.40;101272.00;;;;5064757;28;20213;-56
2023/10/15 10:31:36;;;;;;;6.60;2.57;;;17.80;72.70;18.40;101271.00;;;;5069939;28;20195;-59
2023/10/15 10:34:03;;;;;;;4.70;2.33;;;17.80;72.80;18.40;101271.00;;;;5070433;28;20273;-56
2023/10/15 10:36:30;;;;;;;3.23;2.23;;;17.80;72.70;18.40;101279.00;;;;5064011;28;20178;-55
2023/10/15 10:39:10;;;;;;;2.67;2.03;;;17.80;72.50;18.40;101278.00;;;;5055854;28;20801;-55
2023/10/15 10:41:42;;;;;;;2.60;2.20;;;17.80;72.40;18.40;101281.00;;;;5062836;28;20212;-56
2023/10/15 10:44:24;;;;;;;3.47;2.23;;;17.80;72.50;18.40;101277.00;;;;5070245;28;20216;-56
2023/10/15 10:46:52;;;;;;;3.40;2.20;;;17.80;72.50;18.40;101276.00;;;;5070945;28;20296;-56
2023/10/15 10:49:29;;;;;;;2.93;2.23;;;17.80;72.50;18.40;101276.00;;;;5070355;28;20185;-56
2023/10/15 10:52:14;;;;;;;3.10;2.00;;;17.80;72.40;18.40;101277.00;;;;5069722;28;20173;-56
2023/10/15 10:54:40;;;;;;;2.83;2.00;;;17.80;72.40;18.40;101280.00;;;;5071106;28;20181;-56
2023/10/15 10:57:09;;;;;;;2.47;2.10;;;17.80;72.40;18.40;101270.00;;;;5071023;28;20719;-55
2023/10/15 10:59:36;;;;;;;2.20;1.87;;;17.80;72.30;18.40;101283.00;;;;5066536;28;20192;-60
2023/10/15 11:02:05;;;;;;;3.13;1.97;;;17.80;72.40;18.40;101281.00;;;;5079323;28;20189;-56
2023/10/15 11:04:31;;;;;;;2.20;2.00;;;17.80;72.40;18.40;101288.00;;;;5073418;28;20181;-56
2023/10/15 11:06:58;;;;;;;2.17;1.97;;;17.80;72.40;18.40;101280.00;;;;5070550;28;20262;-57
2023/10/15 11:09:24;;;;;;;3.10;2.17;;;17.80;72.30;18.40;101284.00;;;;5072214;28;20189;-56
2023/10/15 11:11:52;;;;;;;2.87;2.00;;;17.80;72.10;18.40;101288.00;;;;5071481;28;20566;-56